MOL Modern — V7VS6 — position and weather

sailwx.info

Track history (hours):
 
Tides and Currents Weather Stations Pressure Air Temp Water Temp Dewpoint Dewpoint Depression Visibility Wind Speed Wind Dir Waves Ship Positions

MOL Modern

Last reported at 2018-Feb-21 10:14 UTC. Time now 2018-Feb-21 19:26 UTC.
Position N 35°15' W 121°32'.

Length 302 m; draft 12.2 m.

Type: Ship (hazmat cat A). MMSI: 538004203.

Date/timePositionNaut miles runAvg speedWind from/ knotsBaromVisibWave heightAir tempDewpointWater temp
2018-Feb-21 10:14N 35°15' W 121°32'711.4
2018-Feb-21 09:36N 35°09' W 121°27'311.7
2018-Feb-21 09:22N 35°07' W 121°25'611.5
2018-Feb-21 08:52N 35°02' W 121°21'411.6
2018-Feb-21 08:30N 34°59' W 121°18'611.3
2018-Feb-21 08:00N 34°54' W 121°15'511.0
2018-Feb-21 07:30N 34°49' W 121°11'510.8
2018-Feb-21 07:00N 34°45' W 121°07'510.6
2018-Feb-21 06:30N 34°41' W 121°04'610.7
2018-Feb-21 05:59N 34°36' W 120°60'510.6
2018-Feb-21 05:30N 34°32' W 120°56'510.4
2018-Feb-21 05:00N 34°28' W 120°53'510.0
2018-Feb-21 04:30N 34°25' W 120°48'510.4
2018-Feb-21 04:00N 34°24' W 120°41'510.4
2018-Feb-21 03:29N 34°22' W 120°35'510.5
2018-Feb-21 03:00N 34°21' W 120°29'510.6
2018-Feb-21 02:30N 34°20' W 120°23'510.4
2018-Feb-21 01:59N 34°18' W 120°17'510.6
2018-Feb-21 01:28N 34°17' W 120°10'610.9
2018-Feb-21 00:57N 34°15' W 120°04'5 9.8
2018-Feb-21 00:28N 34°14' W 119°58'4 8.8
2018-Feb-21 00:00N 34°13' W 119°53'5 8.3
2018-Feb-20 23:27N 34°12' W 119°48'4 8.7
2018-Feb-20 22:59N 34°11' W 119°43'5 8.9
2018-Feb-20 22:28N 34°09' W 119°38'4 9.2
2018-Feb-20 22:00N 34°08' W 119°33'5 9.6
2018-Feb-20 21:28N 34°07' W 119°27'5 9.4
2018-Feb-20 20:56N 34°06' W 119°21'4 9.5
2018-Feb-20 20:30N 34°05' W 119°16'5 9.6
2018-Feb-20 20:00N 34°03' W 119°11'611.0
2018-Feb-20 19:27N 33°59' W 119°05'511.3
2018-Feb-20 19:00N 33°57' W 118°60'611.4
2018-Feb-20 18:30N 33°54' W 118°54'611.4
2018-Feb-20 18:00N 33°51' W 118°48'611.5
2018-Feb-20 17:30N 33°49' W 118°42'611.2
2018-Feb-20 17:00N 33°46' W 118°36'611.4
2018-Feb-20 16:30N 33°43' W 118°30'611.5
2018-Feb-20 16:00N 33°40' W 118°24'611.0
2018-Feb-20 15:30N 33°39' W 118°18'4 8.9
2018-Feb-20 15:00N 33°42' W 118°15'3 5.7
2018-Feb-20 14:30N 33°45' W 118°16'1 2.0
2018-Feb-20 14:00N 33°46' W 118°16'0 0.2
2018-Feb-20 13:29N 33°46' W 118°16'0 0.0
2018-Feb-20 12:59N 33°46' W 118°16'0 0.0
2018-Feb-20 12:28N 33°46' W 118°16'0 0.0
2018-Feb-20 11:59N 33°46' W 118°16'0 0.0
2018-Feb-20 11:29N 33°46' W 118°16'0 0.0
2018-Feb-20 10:59N 33°46' W 118°16'0 0.0
2018-Feb-20 10:29N 33°46' W 118°16'0 0.0
2018-Feb-20 09:59N 33°46' W 118°16'0 0.0
2018-Feb-20 09:29N 33°46' W 118°16'0 0.0
2018-Feb-20 08:56N 33°46' W 118°16'0 0.0
2018-Feb-20 08:29N 33°46' W 118°16'0 0.0
2018-Feb-20 07:59N 33°46' W 118°16'0 0.0
2018-Feb-20 07:29N 33°46' W 118°16'0 0.0
2018-Feb-20 06:56N 33°46' W 118°16'0 0.0
2018-Feb-20 06:28N 33°46' W 118°16'0 0.0
2018-Feb-20 05:59N 33°46' W 118°16'0 0.0
2018-Feb-20 05:29N 33°46' W 118°16'0 0.0
2018-Feb-20 04:59N 33°46' W 118°16'0 0.0
2018-Feb-20 04:29N 33°46' W 118°16'0 0.0
2018-Feb-20 03:55N 33°46' W 118°16'0 0.0
2018-Feb-20 03:29N 33°46' W 118°16'0 0.0
2018-Feb-20 02:59N 33°46' W 118°16'0 0.0
2018-Feb-20 02:28N 33°46' W 118°16'0 0.0
2018-Feb-20 01:59N 33°46' W 118°16'0 0.0
2018-Feb-20 01:28N 33°46' W 118°16'0 0.0
2018-Feb-20 00:58N 33°46' W 118°16'0 0.0
2018-Feb-20 00:29N 33°46' W 118°16'0 0.0
2018-Feb-19 23:58N 33°46' W 118°16'0 0.0
2018-Feb-19 23:29N 33°46' W 118°16'0 0.0
2018-Feb-19 22:58N 33°46' W 118°16'0 0.0
2018-Feb-19 22:28N 33°46' W 118°16'0 0.0
2018-Feb-19 21:58N 33°46' W 118°16'0 0.0
2018-Feb-19 21:22N 33°46' W 118°16'0 0.0
2018-Feb-19 20:58N 33°46' W 118°16'0 0.0
2018-Feb-19 20:28N 33°46' W 118°16'0 0.0
2018-Feb-19 19:58N 33°46' W 118°16'0 0.0
2018-Feb-19 19:28N 33°46' W 118°16'0 0.0
2018-Feb-19 18:58N 33°46' W 118°16'0 0.0
2018-Feb-19 18:28N 33°46' W 118°16'0 0.0
2018-Feb-19 17:58N 33°46' W 118°16'0 0.0
2018-Feb-19 17:28N 33°46' W 118°16'0 0.0
2018-Feb-19 16:58N 33°46' W 118°16'0 0.0
2018-Feb-19 16:28N 33°46' W 118°16'0 0.0
2018-Feb-19 15:58N 33°46' W 118°16'0 0.0
2018-Feb-19 15:28N 33°46' W 118°16'0 0.0
2018-Feb-19 14:58N 33°46' W 118°16'0 0.0
2018-Feb-19 14:28N 33°46' W 118°16'0 0.0
2018-Feb-19 13:58N 33°46' W 118°16'0 0.0
2018-Feb-19 13:28N 33°46' W 118°16'0 0.6
2018-Feb-19 13:01N 33°46' W 118°16'2 3.5
2018-Feb-19 12:30N 33°44' W 118°16'3 6.6
2018-Feb-19 12:00N 33°41' W 118°14'4 7.8
2018-Feb-19 11:30N 33°38' W 118°12'5 9.7
2018-Feb-19 10:59N 33°34' W 118°09'1911.0
2018-Feb-19 09:14N 33°16' W 118°00'311.6
2018-Feb-19 09:00N 33°13' W 117°59'611.3
2018-Feb-19 08:30N 33°08' W 117°56'611.3
2018-Feb-19 07:59N 33°03' W 117°54'511.4
2018-Feb-19 07:30N 32°58' W 117°51'711.3
2018-Feb-19 06:51N 32°51' W 117°47'411.6
2018-Feb-19 06:30N 32°47' W 117°45'611.9
2018-Feb-19 06:00N 32°42' W 117°42'510.4
2018-Feb-19 05:30N 32°37' W 117°40'815.5
2018-Feb-19 05:00N 32°30' W 117°37'815.4
2018-Feb-19 04:29N 32°22' W 117°34'815.6
2018-Feb-19 03:56N 32°14' W 117°32'7515.4
2018-Feb-18 23:04N 31°02' W 117°06'216.9
2018-Feb-18 22:57N 31°00' W 117°05'817.0
2018-Feb-18 22:30N 30°53' W 117°02'917.2
2018-Feb-18 22:00N 30°45' W 117°01'3417.3
2018-Feb-18 20:04N 30°12' W 116°50'117.4
2018-Feb-18 20:00N 30°11' W 116°50'1517.4
2018-Feb-18 19:07N 29°57' W 116°44'217.3
2018-Feb-18 19:00N 29°55' W 116°43'11517.7
2018-Feb-18 12:31N 28°07' W 115°56'117.8
2018-Feb-18 12:28N 28°07' W 115°56'  
2018-Feb-11 18:22N 09°11' W 079°52'3 8.4
2018-Feb-11 17:58N 09°12' W 079°55'1 2.9
2018-Feb-11 17:30N 09°13' W 079°56'0 0.4
2018-Feb-11 17:00N 09°13' W 079°56'0 0.0
2018-Feb-11 16:30N 09°13' W 079°56'0 0.0
2018-Feb-11 16:00N 09°13' W 079°56'0 0.2
2018-Feb-11 15:30N 09°13' W 079°56'0 0.9
2018-Feb-11 15:00N 09°14' W 079°56'2 4.9
2018-Feb-11 14:30N 09°16' W 079°55'0 0.5
2018-Feb-11 14:00N 09°16' W 079°55'0 0.5
2018-Feb-11 13:30N 09°16' W 079°55'0 0.5
2018-Feb-11 13:00N 09°17' W 079°55'0 0.0
2018-Feb-11 12:30N 09°17' W 079°55'0 0.5
2018-Feb-11 12:00N 09°17' W 079°55'0 0.4
2018-Feb-11 11:30N 09°17' W 079°55'1 2.2
2018-Feb-11 11:00N 09°18' W 079°55'2 4.9
2018-Feb-11 10:30N 09°21' W 079°55'  
Track history (hours):
 
Tides and Currents Weather Stations Pressure Air Temp Water Temp Dewpoint Dewpoint Depression Visibility Wind Speed Wind Dir Waves Ship Positions

MOL Modern

Last reported at 2018-Feb-21 10:14 UTC. Time now 2018-Feb-21 19:26 UTC.
Position N 35°15' W 121°32'.

Length 302 m; draft 12.2 m.

Type: Ship (hazmat cat A). MMSI: 538004203.

Date/timePositionNaut miles runAvg speedWind from/ knotsBaromVisibWave heightAir tempDewpointWater temp
2018-Feb-21 10:14N 35°15' W 121°32'711.4
2018-Feb-21 09:36N 35°09' W 121°27'311.7
2018-Feb-21 09:22N 35°07' W 121°25'611.5
2018-Feb-21 08:52N 35°02' W 121°21'411.6
2018-Feb-21 08:30N 34°59' W 121°18'611.3
2018-Feb-21 08:00N 34°54' W 121°15'511.0
2018-Feb-21 07:30N 34°49' W 121°11'510.8
2018-Feb-21 07:00N 34°45' W 121°07'510.6
2018-Feb-21 06:30N 34°41' W 121°04'610.7
2018-Feb-21 05:59N 34°36' W 120°60'510.6
2018-Feb-21 05:30N 34°32' W 120°56'510.4
2018-Feb-21 05:00N 34°28' W 120°53'510.0
2018-Feb-21 04:30N 34°25' W 120°48'510.4
2018-Feb-21 04:00N 34°24' W 120°41'510.4
2018-Feb-21 03:29N 34°22' W 120°35'510.5
2018-Feb-21 03:00N 34°21' W 120°29'510.6
2018-Feb-21 02:30N 34°20' W 120°23'510.4
2018-Feb-21 01:59N 34°18' W 120°17'510.6
2018-Feb-21 01:28N 34°17' W 120°10'610.9
2018-Feb-21 00:57N 34°15' W 120°04'5 9.8
2018-Feb-21 00:28N 34°14' W 119°58'4 8.8
2018-Feb-21 00:00N 34°13' W 119°53'5 8.3
2018-Feb-20 23:27N 34°12' W 119°48'4 8.7
2018-Feb-20 22:59N 34°11' W 119°43'5 8.9
2018-Feb-20 22:28N 34°09' W 119°38'4 9.2
2018-Feb-20 22:00N 34°08' W 119°33'5 9.6
2018-Feb-20 21:28N 34°07' W 119°27'5 9.4
2018-Feb-20 20:56N 34°06' W 119°21'4 9.5
2018-Feb-20 20:30N 34°05' W 119°16'5 9.6
2018-Feb-20 20:00N 34°03' W 119°11'611.0
2018-Feb-20 19:27N 33°59' W 119°05'511.3
2018-Feb-20 19:00N 33°57' W 118°60'611.4
2018-Feb-20 18:30N 33°54' W 118°54'611.4
2018-Feb-20 18:00N 33°51' W 118°48'611.5
2018-Feb-20 17:30N 33°49' W 118°42'611.2
2018-Feb-20 17:00N 33°46' W 118°36'611.4
2018-Feb-20 16:30N 33°43' W 118°30'611.5
2018-Feb-20 16:00N 33°40' W 118°24'611.0
2018-Feb-20 15:30N 33°39' W 118°18'4 8.9
2018-Feb-20 15:00N 33°42' W 118°15'3 5.7
2018-Feb-20 14:30N 33°45' W 118°16'1 2.0
2018-Feb-20 14:00N 33°46' W 118°16'0 0.2
2018-Feb-20 13:29N 33°46' W 118°16'0 0.0
2018-Feb-20 12:59N 33°46' W 118°16'0 0.0
2018-Feb-20 12:28N 33°46' W 118°16'0 0.0
2018-Feb-20 11:59N 33°46' W 118°16'0 0.0
2018-Feb-20 11:29N 33°46' W 118°16'0 0.0
2018-Feb-20 10:59N 33°46' W 118°16'0 0.0
2018-Feb-20 10:29N 33°46' W 118°16'0 0.0
2018-Feb-20 09:59N 33°46' W 118°16'0 0.0
2018-Feb-20 09:29N 33°46' W 118°16'0 0.0
2018-Feb-20 08:56N 33°46' W 118°16'0 0.0
2018-Feb-20 08:29N 33°46' W 118°16'0 0.0
2018-Feb-20 07:59N 33°46' W 118°16'0 0.0
2018-Feb-20 07:29N 33°46' W 118°16'0 0.0
2018-Feb-20 06:56N 33°46' W 118°16'0 0.0
2018-Feb-20 06:28N 33°46' W 118°16'0 0.0
2018-Feb-20 05:59N 33°46' W 118°16'0 0.0
2018-Feb-20 05:29N 33°46' W 118°16'0 0.0
2018-Feb-20 04:59N 33°46' W 118°16'0 0.0
2018-Feb-20 04:29N 33°46' W 118°16'0 0.0
2018-Feb-20 03:55N 33°46' W 118°16'0 0.0
2018-Feb-20 03:29N 33°46' W 118°16'0 0.0
2018-Feb-20 02:59N 33°46' W 118°16'0 0.0
2018-Feb-20 02:28N 33°46' W 118°16'0 0.0
2018-Feb-20 01:59N 33°46' W 118°16'0 0.0
2018-Feb-20 01:28N 33°46' W 118°16'0 0.0
2018-Feb-20 00:58N 33°46' W 118°16'0 0.0
2018-Feb-20 00:29N 33°46' W 118°16'0 0.0
2018-Feb-19 23:58N 33°46' W 118°16'0 0.0
2018-Feb-19 23:29N 33°46' W 118°16'0 0.0
2018-Feb-19 22:58N 33°46' W 118°16'0 0.0
2018-Feb-19 22:28N 33°46' W 118°16'0 0.0
2018-Feb-19 21:58N 33°46' W 118°16'0 0.0
2018-Feb-19 21:22N 33°46' W 118°16'0 0.0
2018-Feb-19 20:58N 33°46' W 118°16'0 0.0
2018-Feb-19 20:28N 33°46' W 118°16'0 0.0
2018-Feb-19 19:58N 33°46' W 118°16'0 0.0
2018-Feb-19 19:28N 33°46' W 118°16'0 0.0
2018-Feb-19 18:58N 33°46' W 118°16'0 0.0
2018-Feb-19 18:28N 33°46' W 118°16'0 0.0
2018-Feb-19 17:58N 33°46' W 118°16'0 0.0
2018-Feb-19 17:28N 33°46' W 118°16'0 0.0
2018-Feb-19 16:58N 33°46' W 118°16'0 0.0
2018-Feb-19 16:28N 33°46' W 118°16'0 0.0
2018-Feb-19 15:58N 33°46' W 118°16'0 0.0
2018-Feb-19 15:28N 33°46' W 118°16'0 0.0
2018-Feb-19 14:58N 33°46' W 118°16'0 0.0
2018-Feb-19 14:28N 33°46' W 118°16'0 0.0
2018-Feb-19 13:58N 33°46' W 118°16'0 0.0
2018-Feb-19 13:28N 33°46' W 118°16'0 0.6
2018-Feb-19 13:01N 33°46' W 118°16'2 3.5
2018-Feb-19 12:30N 33°44' W 118°16'3 6.6
2018-Feb-19 12:00N 33°41' W 118°14'4 7.8
2018-Feb-19 11:30N 33°38' W 118°12'5 9.7
2018-Feb-19 10:59N 33°34' W 118°09'1911.0
2018-Feb-19 09:14N 33°16' W 118°00'311.6
2018-Feb-19 09:00N 33°13' W 117°59'611.3
2018-Feb-19 08:30N 33°08' W 117°56'611.3
2018-Feb-19 07:59N 33°03' W 117°54'511.4
2018-Feb-19 07:30N 32°58' W 117°51'711.3
2018-Feb-19 06:51N 32°51' W 117°47'411.6
2018-Feb-19 06:30N 32°47' W 117°45'611.9
2018-Feb-19 06:00N 32°42' W 117°42'510.4
2018-Feb-19 05:30N 32°37' W 117°40'815.5
2018-Feb-19 05:00N 32°30' W 117°37'815.4
2018-Feb-19 04:29N 32°22' W 117°34'815.6
2018-Feb-19 03:56N 32°14' W 117°32'7515.4
2018-Feb-18 23:04N 31°02' W 117°06'216.9
2018-Feb-18 22:57N 31°00' W 117°05'817.0
2018-Feb-18 22:30N 30°53' W 117°02'917.2
2018-Feb-18 22:00N 30°45' W 117°01'3417.3
2018-Feb-18 20:04N 30°12' W 116°50'117.4
2018-Feb-18 20:00N 30°11' W 116°50'1517.4
2018-Feb-18 19:07N 29°57' W 116°44'217.3
2018-Feb-18 19:00N 29°55' W 116°43'11517.7
2018-Feb-18 12:31N 28°07' W 115°56'117.8
2018-Feb-18 12:28N 28°07' W 115°56'  
2018-Feb-11 18:22N 09°11' W 079°52'3 8.4
2018-Feb-11 17:58N 09°12' W 079°55'1 2.9
2018-Feb-11 17:30N 09°13' W 079°56'0 0.4
2018-Feb-11 17:00N 09°13' W 079°56'0 0.0
2018-Feb-11 16:30N 09°13' W 079°56'0 0.0
2018-Feb-11 16:00N 09°13' W 079°56'0 0.2
2018-Feb-11 15:30N 09°13' W 079°56'0 0.9
2018-Feb-11 15:00N 09°14' W 079°56'2 4.9
2018-Feb-11 14:30N 09°16' W 079°55'0 0.5
2018-Feb-11 14:00N 09°16' W 079°55'0 0.5
2018-Feb-11 13:30N 09°16' W 079°55'0 0.5
2018-Feb-11 13:00N 09°17' W 079°55'0 0.0
2018-Feb-11 12:30N 09°17' W 079°55'0 0.5
2018-Feb-11 12:00N 09°17' W 079°55'0 0.4
2018-Feb-11 11:30N 09°17' W 079°55'1 2.2
2018-Feb-11 11:00N 09°18' W 079°55'2 4.9
2018-Feb-11 10:30N 09°21' W 079°55'  

Dump ship's entire track history